createdAt,value
2024-02-26T00:00:05.463Z,20.52
2024-02-26T00:02:34.804Z,20.70
2024-02-26T00:05:01.856Z,20.33
2024-02-26T00:07:28.891Z,20.52
2024-02-26T00:09:55.950Z,20.58
2024-02-26T00:12:23.549Z,21.13
2024-02-26T00:14:51.221Z,21.00
2024-02-26T00:17:18.389Z,21.58
2024-02-26T00:19:45.557Z,21.02
2024-02-26T00:22:12.756Z,21.60
2024-02-26T00:24:42.098Z,20.98
2024-02-26T00:27:09.311Z,20.60
2024-02-26T00:29:36.518Z,21.02
2024-02-26T00:32:03.633Z,21.77
2024-02-26T00:34:31.201Z,21.65
2024-02-26T00:36:58.451Z,21.48
2024-02-26T00:39:25.579Z,21.23
2024-02-26T00:41:53.446Z,21.90
2024-02-26T00:44:20.972Z,21.45
2024-02-26T00:46:49.638Z,21.27
2024-02-26T00:49:16.814Z,21.50
2024-02-26T00:51:43.910Z,21.13
2024-02-26T00:54:11.009Z,20.83
2024-02-26T00:56:38.158Z,21.02
2024-02-26T00:59:05.968Z,21.42
2024-02-26T01:01:33.414Z,21.13
2024-02-26T01:04:00.677Z,20.67
2024-02-26T01:06:28.492Z,20.73
2024-02-26T01:08:55.735Z,20.75
2024-02-26T01:11:22.939Z,21.50
2024-02-26T01:13:50.538Z,21.00
2024-02-26T01:16:17.844Z,21.10
2024-02-26T01:18:45.382Z,21.15
2024-02-26T01:21:12.952Z,20.85
2024-02-26T01:23:40.048Z,21.63
2024-02-26T01:26:08.151Z,22.00
2024-02-26T01:28:36.428Z,21.70
2024-02-26T01:31:06.533Z,22.48
2024-02-26T01:33:34.224Z,22.52
2024-02-26T01:36:02.240Z,22.33
2024-02-26T01:38:29.495Z,22.52
2024-02-26T01:40:56.793Z,22.23
2024-02-26T01:43:24.007Z,23.08
2024-02-26T01:45:51.005Z,23.13
2024-02-26T01:48:18.674Z,24.00
2024-02-26T01:50:45.985Z,23.35
2024-02-26T01:53:14.467Z,23.73
2024-02-26T01:55:42.298Z,23.95
2024-02-26T01:58:10.114Z,24.35
2024-02-26T02:00:39.918Z,23.20
2024-02-26T02:03:07.546Z,23.38
2024-02-26T02:05:34.935Z,22.60
2024-02-26T02:08:02.832Z,22.52
2024-02-26T02:10:30.503Z,23.10
2024-02-26T02:12:57.928Z,23.00
2024-02-26T02:15:25.076Z,23.60
2024-02-26T02:17:52.500Z,23.60
2024-02-26T02:20:20.313Z,23.23
2024-02-26T02:22:47.980Z,23.42
2024-02-26T02:25:15.325Z,23.42
2024-02-26T02:27:44.288Z,23.13
2024-02-26T02:30:12.941Z,23.23
2024-02-26T02:32:44.842Z,22.70
2024-02-26T02:35:11.993Z,22.17
2024-02-26T02:37:39.069Z,22.33
2024-02-26T02:40:06.989Z,22.83
2024-02-26T02:42:35.234Z,22.90
2024-02-26T02:45:02.380Z,22.98
2024-02-26T02:47:29.591Z,22.58
2024-02-26T02:49:57.357Z,23.13
2024-02-26T02:52:24.969Z,22.63
2024-02-26T02:54:52.028Z,23.33
2024-02-26T02:57:19.252Z,22.90
2024-02-26T02:59:47.921Z,23.30
2024-02-26T03:02:15.140Z,22.63
2024-02-26T03:04:42.279Z,23.35
2024-02-26T03:07:09.621Z,22.88
2024-02-26T03:09:36.811Z,23.65
2024-02-26T03:12:04.197Z,23.92
2024-02-26T03:14:31.816Z,23.50
2024-02-26T03:16:58.884Z,23.80
2024-02-26T03:19:27.019Z,23.67
2024-02-26T03:21:54.403Z,23.17
2024-02-26T03:24:21.513Z,24.25
2024-02-26T03:26:48.577Z,23.25
2024-02-26T03:29:15.580Z,24.77
2024-02-26T03:31:42.670Z,24.35
2024-02-26T03:34:10.359Z,24.48
2024-02-26T03:36:37.591Z,24.90
2024-02-26T03:39:08.939Z,24.70
2024-02-26T03:41:36.529Z,26.75
2024-02-26T03:44:04.218Z,25.42
2024-02-26T03:46:31.408Z,23.63
2024-02-26T03:48:58.621Z,23.30
2024-02-26T03:51:26.199Z,24.60
2024-02-26T03:53:53.499Z,25.58
2024-02-26T03:56:22.245Z,26.13
2024-02-26T03:58:49.291Z,24.10
2024-02-26T04:01:17.070Z,28.60
2024-02-26T04:03:45.240Z,29.73
2024-02-26T04:06:15.575Z,25.05
2024-02-26T04:08:43.177Z,27.55
2024-02-26T04:11:11.568Z,25.23
2024-02-26T04:13:39.989Z,30.05
2024-02-26T04:16:07.901Z,29.08
2024-02-26T04:18:36.394Z,23.67
2024-02-26T04:21:05.144Z,24.42
2024-02-26T04:23:35.876Z,25.00
2024-02-26T04:26:02.897Z,30.48
2024-02-26T04:28:31.216Z,29.42
2024-02-26T04:30:59.400Z,27.23
2024-02-26T04:33:26.743Z,25.95
2024-02-26T04:35:53.915Z,24.48
2024-02-26T04:38:20.954Z,24.55
2024-02-26T04:40:48.441Z,24.90
2024-02-26T04:43:15.769Z,23.98
2024-02-26T04:45:42.918Z,24.13
2024-02-26T04:48:10.522Z,23.48
2024-02-26T04:50:37.653Z,27.13
2024-02-26T04:53:05.267Z,23.23
2024-02-26T04:55:32.322Z,23.23
2024-02-26T04:58:00.466Z,23.88
2024-02-26T05:00:27.487Z,24.17
2024-02-26T05:02:55.882Z,23.92
2024-02-26T05:05:24.454Z,23.20
2024-02-26T05:07:51.441Z,23.08
2024-02-26T05:10:18.501Z,23.88
2024-02-26T05:12:45.462Z,23.55
2024-02-26T05:15:12.600Z,23.40
2024-02-26T05:17:39.824Z,23.42
2024-02-26T05:20:09.363Z,24.00
2024-02-26T05:22:36.416Z,24.08
2024-02-26T05:25:04.525Z,23.77
2024-02-26T05:27:31.651Z,23.00
2024-02-26T05:29:58.831Z,23.27
2024-02-26T05:32:25.929Z,23.63
2024-02-26T05:34:53.066Z,22.88
2024-02-26T05:37:20.183Z,22.05
2024-02-26T05:39:47.275Z,24.30
2024-02-26T05:42:14.436Z,23.63
2024-02-26T05:44:41.628Z,23.75
2024-02-26T05:47:08.778Z,23.15
2024-02-26T05:49:35.995Z,23.30
2024-02-26T05:52:03.887Z,22.80
2024-02-26T05:54:31.303Z,22.17
2024-02-26T05:56:59.002Z,22.58
2024-02-26T05:59:26.075Z,22.48
2024-02-26T06:01:53.458Z,21.70
2024-02-26T06:04:20.561Z,22.67
2024-02-26T06:06:48.269Z,21.75
2024-02-26T06:09:15.569Z,21.40
2024-02-26T06:11:42.982Z,22.52
2024-02-26T06:14:11.234Z,23.17
2024-02-26T06:16:38.702Z,22.27
2024-02-26T06:19:05.882Z,21.30
2024-02-26T06:21:33.143Z,21.38
2024-02-26T06:24:00.456Z,21.55
2024-02-26T06:26:30.354Z,21.80
2024-02-26T06:28:57.831Z,21.70
2024-02-26T06:31:24.949Z,21.40
2024-02-26T06:33:52.546Z,21.35
2024-02-26T06:36:19.738Z,20.73
2024-02-26T06:38:46.882Z,21.50
2024-02-26T06:41:13.882Z,20.73
2024-02-26T06:43:40.916Z,20.55
2024-02-26T06:46:08.703Z,20.98
2024-02-26T06:48:38.396Z,21.42
2024-02-26T06:51:05.950Z,21.52
2024-02-26T06:53:33.074Z,21.90
2024-02-26T06:56:00.252Z,21.95
2024-02-26T06:58:27.345Z,21.42
2024-02-26T07:00:54.526Z,21.45
2024-02-26T07:03:24.179Z,21.35
2024-02-26T07:05:51.811Z,22.48
2024-02-26T07:08:19.436Z,22.52
2024-02-26T07:10:46.573Z,21.92
2024-02-26T07:13:13.733Z,21.52
2024-02-26T07:15:40.854Z,21.45
2024-02-26T07:18:09.637Z,21.02
2024-02-26T07:20:36.954Z,21.67
2024-02-26T07:23:05.794Z,21.45
2024-02-26T07:25:32.881Z,21.17
2024-02-26T07:28:00.029Z,20.95
2024-02-26T07:30:27.286Z,22.00
2024-02-26T07:32:54.558Z,20.65
2024-02-26T07:35:22.021Z,23.25
2024-02-26T07:37:52.188Z,25.13
2024-02-26T07:40:20.109Z,24.88
2024-02-26T07:42:47.244Z,22.55
2024-02-26T07:45:16.950Z,21.58
2024-02-26T07:47:45.016Z,21.35
2024-02-26T07:50:14.092Z,22.55
2024-02-26T07:52:41.615Z,21.73
2024-02-26T07:55:08.958Z,21.58
2024-02-26T07:57:36.517Z,20.73
2024-02-26T08:00:04.870Z,20.77
2024-02-26T08:02:32.308Z,20.45
2024-02-26T08:04:59.729Z,20.73
2024-02-26T08:07:27.341Z,20.95
2024-02-26T08:09:54.359Z,20.38
2024-02-26T08:12:22.591Z,19.70
2024-02-26T08:14:49.765Z,19.63
2024-02-26T08:17:18.082Z,19.25
2024-02-26T08:19:45.280Z,18.83
2024-02-26T08:22:17.314Z,18.13
2024-02-26T08:24:44.813Z,17.73
2024-02-26T08:27:13.328Z,17.10
2024-02-26T08:29:41.843Z,17.08
2024-02-26T08:32:10.353Z,17.15
2024-02-26T08:34:37.400Z,16.38
2024-02-26T08:37:04.941Z,16.50
2024-02-26T08:39:32.173Z,16.48
2024-02-26T08:41:59.316Z,16.30
2024-02-26T08:44:28.015Z,16.30
2024-02-26T08:46:55.110Z,16.42
2024-02-26T08:49:24.896Z,16.50
2024-02-26T08:51:53.670Z,16.90
2024-02-26T08:54:21.049Z,16.65
2024-02-26T08:56:48.567Z,16.90
2024-02-26T08:59:17.589Z,16.20
2024-02-26T09:01:44.706Z,16.05
2024-02-26T09:04:12.304Z,16.23
2024-02-26T09:06:39.468Z,15.77
2024-02-26T09:09:06.924Z,16.10
2024-02-26T09:11:34.285Z,16.63
2024-02-26T09:14:01.500Z,16.88
2024-02-26T09:16:28.530Z,38.92
2024-02-26T09:18:55.820Z,17.13
2024-02-26T09:21:25.023Z,16.00
2024-02-26T09:23:55.629Z,16.10
2024-02-26T09:26:22.687Z,16.35
2024-02-26T09:28:49.960Z,16.70
2024-02-26T09:31:19.210Z,16.38
2024-02-26T09:33:49.814Z,15.82
2024-02-26T09:36:17.153Z,16.25
2024-02-26T09:38:52.700Z,16.25
2024-02-26T09:41:31.189Z,16.60
2024-02-26T09:44:01.933Z,16.60
2024-02-26T09:46:29.934Z,21.55
2024-02-26T09:48:57.974Z,17.50
2024-02-26T09:51:29.190Z,16.08
2024-02-26T09:54:01.272Z,16.63
2024-02-26T09:56:30.665Z,16.63
2024-02-26T09:58:59.407Z,16.73
2024-02-26T10:01:28.664Z,18.00
2024-02-26T10:03:59.483Z,17.25
2024-02-26T10:06:30.050Z,16.95
2024-02-26T10:09:00.424Z,17.23
2024-02-26T10:11:29.008Z,17.48
2024-02-26T10:13:56.108Z,17.80
2024-02-26T10:16:23.893Z,17.23
2024-02-26T10:18:58.289Z,16.90
2024-02-26T10:21:27.877Z,16.50
2024-02-26T10:23:56.111Z,15.90
2024-02-26T10:26:24.708Z,15.82
2024-02-26T10:28:55.240Z,15.80
2024-02-26T10:31:23.462Z,16.02
2024-02-26T10:33:51.497Z,15.70
2024-02-26T10:36:19.178Z,15.50
2024-02-26T10:38:46.432Z,15.70
2024-02-26T10:41:16.823Z,16.25
2024-02-26T10:43:45.711Z,15.70
2024-02-26T10:46:13.590Z,15.55
2024-02-26T10:48:41.355Z,15.63
2024-02-26T10:51:14.638Z,15.45
2024-02-26T10:53:45.323Z,16.27
2024-02-26T10:56:15.147Z,15.35
2024-02-26T10:58:44.407Z,14.82
2024-02-26T11:01:12.609Z,14.88
2024-02-26T11:03:40.812Z,14.88
2024-02-26T11:06:09.646Z,15.10
2024-02-26T11:08:37.099Z,14.60
2024-02-26T11:11:04.795Z,15.25
2024-02-26T11:13:34.693Z,15.27
2024-02-26T11:16:04.100Z,15.20
2024-02-26T11:18:32.816Z,15.60
2024-02-26T11:21:01.317Z,15.70
2024-02-26T11:23:28.570Z,16.05
2024-02-26T11:25:59.135Z,16.92
2024-02-26T11:28:28.809Z,16.58
2024-02-26T11:30:56.515Z,16.85
2024-02-26T11:33:24.041Z,16.90
2024-02-26T11:35:51.674Z,16.58
2024-02-26T11:38:23.357Z,16.75
2024-02-26T11:40:51.912Z,17.38
2024-02-26T11:43:19.064Z,17.23
2024-02-26T11:45:51.070Z,16.38
2024-02-26T11:48:22.633Z,16.50
2024-02-26T11:50:55.189Z,16.67
2024-02-26T11:53:29.667Z,16.02
2024-02-26T11:56:18.029Z,17.10
2024-02-26T11:58:45.827Z,16.15
2024-02-26T12:01:45.995Z,17.48
2024-02-26T12:04:23.783Z,18.10
2024-02-26T12:06:58.063Z,18.55
2024-02-26T12:09:43.072Z,17.73
2024-02-26T12:12:12.202Z,16.90
2024-02-26T12:14:42.465Z,17.67
2024-02-26T12:17:21.880Z,17.83
2024-02-26T12:19:49.191Z,16.90
2024-02-26T12:22:16.924Z,19.42
2024-02-26T12:24:44.890Z,17.13
2024-02-26T12:27:12.287Z,17.85
2024-02-26T12:29:39.821Z,22.02
2024-02-26T12:32:08.327Z,17.15
2024-02-26T12:34:36.177Z,18.85
2024-02-26T12:37:03.805Z,16.65
2024-02-26T12:39:31.768Z,16.02
2024-02-26T12:42:00.933Z,16.30
2024-02-26T12:44:28.517Z,16.17
2024-02-26T12:47:05.582Z,15.88
2024-02-26T12:49:33.553Z,16.25
2024-02-26T12:52:04.293Z,15.98
2024-02-26T12:54:36.068Z,15.60
2024-02-26T12:57:05.607Z,15.95
2024-02-26T12:59:33.529Z,15.90
2024-02-26T13:02:00.864Z,15.80
2024-02-26T13:04:31.619Z,15.70
2024-02-26T13:07:04.082Z,15.10
2024-02-26T13:09:36.090Z,15.27
2024-02-26T13:12:06.555Z,15.30
2024-02-26T13:14:35.363Z,15.07
2024-02-26T13:17:03.797Z,15.70
2024-02-26T13:19:31.481Z,15.25
2024-02-26T13:22:08.723Z,15.30
2024-02-26T13:24:37.165Z,16.42
2024-02-26T13:27:06.776Z,15.02
2024-02-26T13:29:34.782Z,14.73
2024-02-26T13:32:02.026Z,16.10
2024-02-26T13:34:32.508Z,15.50
2024-02-26T13:36:59.894Z,15.75
2024-02-26T13:39:28.871Z,15.18
2024-02-26T13:41:56.757Z,15.20
2024-02-26T13:44:24.650Z,15.60
2024-02-26T13:46:52.490Z,15.68
2024-02-26T13:49:20.174Z,15.68
2024-02-26T13:51:47.418Z,15.65
2024-02-26T13:54:16.164Z,15.52
2024-02-26T13:56:45.787Z,15.25
2024-02-26T13:59:14.473Z,15.63
2024-02-26T14:01:41.502Z,15.13
2024-02-26T14:04:10.778Z,15.70
2024-02-26T14:06:38.474Z,15.52
2024-02-26T14:09:06.008Z,14.55
2024-02-26T14:11:33.429Z,14.25
2024-02-26T14:14:00.671Z,14.30
2024-02-26T14:16:30.179Z,14.60
2024-02-26T14:18:59.137Z,14.68
2024-02-26T14:21:27.023Z,14.20
2024-02-26T14:23:54.140Z,14.35
2024-02-26T14:26:21.504Z,14.63
2024-02-26T14:28:48.925Z,14.18
2024-02-26T14:31:19.778Z,14.45
2024-02-26T14:33:47.291Z,14.70
2024-02-26T14:36:15.061Z,14.60
2024-02-26T14:38:42.453Z,14.40
2024-02-26T14:41:09.878Z,14.70
2024-02-26T14:43:37.310Z,14.50
2024-02-26T14:46:04.645Z,14.50
2024-02-26T14:48:33.094Z,14.50
2024-02-26T14:51:01.784Z,14.65
2024-02-26T14:53:29.178Z,14.77
2024-02-26T14:55:56.357Z,14.80
2024-02-26T14:58:24.196Z,15.10
2024-02-26T15:00:52.572Z,15.02
2024-02-26T15:03:19.994Z,15.00
2024-02-26T15:05:47.313Z,14.88
2024-02-26T15:08:16.934Z,14.43
2024-02-26T15:10:49.585Z,14.57
2024-02-26T15:13:19.464Z,14.52
2024-02-26T15:15:47.016Z,14.68
2024-02-26T15:18:17.371Z,14.68
2024-02-26T15:20:46.260Z,14.57
2024-02-26T15:23:13.542Z,14.43
2024-02-26T15:25:43.098Z,14.40
2024-02-26T15:28:12.836Z,14.70
2024-02-26T15:30:40.023Z,14.80
2024-02-26T15:33:07.597Z,14.75
2024-02-26T15:35:35.125Z,14.48
2024-02-26T15:38:02.798Z,14.43
2024-02-26T15:40:29.961Z,14.80
2024-02-26T15:42:57.337Z,15.00
2024-02-26T15:45:26.398Z,14.63
2024-02-26T15:47:54.017Z,14.38
2024-02-26T15:50:21.257Z,14.15
2024-02-26T15:52:48.445Z,14.68
2024-02-26T15:55:17.985Z,14.45
2024-02-26T15:57:46.748Z,14.23
2024-02-26T16:00:14.940Z,14.20
2024-02-26T16:02:42.876Z,14.32
2024-02-26T16:10:36.873Z,14.18
2024-02-26T16:13:05.697Z,13.98
2024-02-26T16:23:34.625Z,14.07
2024-02-26T18:29:57.225Z,14.50
2024-02-26T19:27:50.325Z,15.07
2024-02-26T19:30:31.353Z,14.57
2024-02-26T19:33:21.105Z,15.35
2024-02-26T19:35:55.738Z,15.60
2024-02-26T19:38:30.219Z,15.43
2024-02-26T19:40:59.368Z,15.52
2024-02-26T19:43:29.293Z,15.43
2024-02-26T19:46:04.997Z,15.93
2024-02-26T19:48:35.359Z,15.93
2024-02-26T19:51:03.301Z,16.45
2024-02-26T19:53:31.165Z,16.05
2024-02-26T19:56:06.568Z,15.70
2024-02-26T19:58:34.750Z,16.55
2024-02-26T20:01:02.281Z,16.48
2024-02-26T20:03:31.317Z,16.40
2024-02-26T20:06:00.441Z,16.65
2024-02-26T20:08:28.134Z,16.25
2024-02-26T20:10:58.593Z,16.50
2024-02-26T20:13:29.435Z,15.93
2024-02-26T20:16:01.407Z,18.88
2024-02-26T20:18:29.146Z,18.67
2024-02-26T20:20:56.529Z,17.27
2024-02-26T20:23:23.958Z,16.60
2024-02-26T20:25:51.927Z,18.73
2024-02-26T20:28:20.132Z,21.92
2024-02-26T20:30:49.736Z,20.45
2024-02-26T20:33:20.635Z,17.98
2024-02-26T20:35:48.162Z,22.23
2024-02-26T20:38:19.306Z,30.70
2024-02-26T20:40:48.918Z,49.50
2024-02-26T20:43:21.009Z,20.75
2024-02-26T20:45:50.952Z,23.60
2024-02-26T20:48:19.018Z,23.08
2024-02-26T20:50:46.965Z,20.40
2024-02-26T20:53:14.560Z,17.75
2024-02-26T20:55:45.474Z,28.55
2024-02-26T20:58:18.932Z,19.92
2024-02-26T21:00:48.166Z,17.40
2024-02-26T21:03:15.462Z,16.55
2024-02-26T21:05:43.176Z,17.02
2024-02-26T21:08:19.913Z,16.77
2024-02-26T21:10:57.574Z,17.20
2024-02-26T21:13:25.004Z,16.88
2024-02-26T21:15:55.031Z,16.98
2024-02-26T21:18:24.074Z,16.80
2024-02-26T21:20:54.998Z,16.23
2024-02-26T21:23:25.834Z,17.17
2024-02-26T21:25:53.442Z,17.02
2024-02-26T21:28:22.588Z,17.23
2024-02-26T21:30:49.872Z,16.80
2024-02-26T21:33:17.569Z,17.30
2024-02-26T21:35:46.699Z,17.27
2024-02-26T21:38:15.390Z,17.17
2024-02-26T21:40:44.185Z,16.90
2024-02-26T21:43:12.348Z,17.60
2024-02-26T21:45:43.903Z,17.75
2024-02-26T21:48:12.834Z,17.15
2024-02-26T21:50:40.054Z,18.13
2024-02-26T21:53:08.524Z,18.65
2024-02-26T21:55:37.278Z,17.35
2024-02-26T21:58:04.780Z,17.85
2024-02-26T22:00:32.386Z,30.05
2024-02-26T22:02:59.783Z,19.00
2024-02-26T22:05:28.688Z,18.65
2024-02-26T22:07:55.935Z,20.25
2024-02-26T22:13:05.496Z,17.88
2024-02-26T22:15:32.777Z,17.63
2024-02-26T22:18:02.909Z,17.83
2024-02-26T22:20:32.953Z,18.80
2024-02-26T22:23:01.721Z,17.38
2024-02-26T22:25:30.568Z,20.63
2024-02-26T22:27:57.931Z,18.40
2024-02-26T22:30:25.464Z,17.23
2024-02-26T22:32:52.829Z,16.98
2024-02-26T22:35:20.317Z,16.83
2024-02-26T22:37:47.914Z,17.20
2024-02-26T22:40:16.631Z,18.08
2024-02-26T22:42:43.924Z,17.67
2024-02-26T22:45:11.426Z,17.48
2024-02-26T22:47:39.137Z,17.67
2024-02-26T22:50:07.270Z,17.77
2024-02-26T22:52:36.584Z,17.95
2024-02-26T22:55:04.494Z,18.05
2024-02-26T22:57:32.185Z,18.25
2024-02-26T23:00:02.128Z,18.75
2024-02-26T23:02:31.513Z,19.10
2024-02-26T23:04:58.918Z,18.95
2024-02-26T23:07:26.274Z,19.75
2024-02-26T23:09:54.894Z,20.33
2024-02-26T23:12:22.291Z,19.85
2024-02-26T23:14:49.668Z,19.58
2024-02-26T23:17:17.709Z,19.15
2024-02-26T23:19:45.205Z,19.67
2024-02-26T23:22:13.900Z,18.92
2024-02-26T23:24:41.151Z,18.90
2024-02-26T23:27:10.017Z,18.90
2024-02-26T23:29:38.642Z,19.13
2024-02-26T23:32:06.592Z,18.92
2024-02-26T23:34:33.967Z,18.92
2024-02-26T23:37:01.249Z,19.50
2024-02-26T23:39:28.573Z,19.65
2024-02-26T23:41:55.866Z,19.45
2024-02-26T23:44:23.552Z,20.50
2024-02-26T23:46:50.795Z,20.17
2024-02-26T23:49:19.640Z,20.27
2024-02-26T23:51:48.320Z,20.73
2024-02-26T23:54:15.882Z,20.30
2024-02-26T23:56:43.196Z,20.48
2024-02-26T23:59:10.369Z,20.20
